sensor_id;sensor_type;location;lat;lon;timestamp;P1;durP1;ratioP1;P2;durP2;ratioP2
37847;SDS011;23688;33.130;-117.188;2022-11-20T00:01:14;4.28;;;1.35;;
37847;SDS011;23688;33.130;-117.188;2022-11-20T00:03:43;3.92;;;1.38;;
37847;SDS011;23688;33.130;-117.188;2022-11-20T00:06:11;3.58;;;1.40;;
37847;SDS011;23688;33.130;-117.188;2022-11-20T00:08:39;6.60;;;1.40;;
37847;SDS011;23688;33.130;-117.188;2022-11-20T00:11:07;2.15;;;1.33;;
37847;SDS011;23688;33.130;-117.188;2022-11-20T00:13:36;2.55;;;1.20;;
37847;SDS011;23688;33.130;-117.188;2022-11-20T00:16:04;2.08;;;1.13;;
37847;SDS011;23688;33.130;-117.188;2022-11-20T00:18:32;5.88;;;1.23;;
37847;SDS011;23688;33.130;-117.188;2022-11-20T00:21:12;5.93;;;1.73;;
37847;SDS011;23688;33.130;-117.188;2022-11-20T00:23:41;3.72;;;1.50;;
37847;SDS011;23688;33.130;-117.188;2022-11-20T00:26:12;6.20;;;1.55;;
37847;SDS011;23688;33.130;-117.188;2022-11-20T00:28:40;8.00;;;1.67;;
37847;SDS011;23688;33.130;-117.188;2022-11-20T00:31:08;5.70;;;1.50;;
37847;SDS011;23688;33.130;-117.188;2022-11-20T00:33:40;4.47;;;1.30;;
37847;SDS011;23688;33.130;-117.188;2022-11-20T00:36:11;4.22;;;1.58;;
37847;SDS011;23688;33.130;-117.188;2022-11-20T00:38:45;6.40;;;1.40;;
37847;SDS011;23688;33.130;-117.188;2022-11-20T00:41:14;9.40;;;3.35;;
37847;SDS011;23688;33.130;-117.188;2022-11-20T00:43:42;9.93;;;2.00;;
37847;SDS011;23688;33.130;-117.188;2022-11-20T00:46:10;5.25;;;1.67;;
37847;SDS011;23688;33.130;-117.188;2022-11-20T00:48:40;17.52;;;1.67;;
37847;SDS011;23688;33.130;-117.188;2022-11-20T00:51:07;5.57;;;1.35;;
37847;SDS011;23688;33.130;-117.188;2022-11-20T00:53:34;5.40;;;1.33;;
37847;SDS011;23688;33.130;-117.188;2022-11-20T00:56:06;4.25;;;0.93;;
37847;SDS011;23688;33.130;-117.188;2022-11-20T00:58:35;4.13;;;1.50;;
37847;SDS011;23688;33.130;-117.188;2022-11-20T01:01:04;5.70;;;1.67;;
37847;SDS011;23688;33.130;-117.188;2022-11-20T01:03:36;3.05;;;1.20;;
37847;SDS011;23688;33.130;-117.188;2022-11-20T01:06:07;3.80;;;2.08;;
37847;SDS011;23688;33.130;-117.188;2022-11-20T01:08:38;7.57;;;1.90;;
37847;SDS011;23688;33.130;-117.188;2022-11-20T01:11:09;7.68;;;1.55;;
37847;SDS011;23688;33.130;-117.188;2022-11-20T01:13:37;4.72;;;1.48;;
37847;SDS011;23688;33.130;-117.188;2022-11-20T01:18:43;10.65;;;1.63;;
37847;SDS011;23688;33.130;-117.188;2022-11-20T01:21:13;8.80;;;3.17;;
37847;SDS011;23688;33.130;-117.188;2022-11-20T01:23:42;8.40;;;2.38;;
37847;SDS011;23688;33.130;-117.188;2022-11-20T01:26:10;4.63;;;1.58;;
37847;SDS011;23688;33.130;-117.188;2022-11-20T01:28:41;4.07;;;1.30;;
37847;SDS011;23688;33.130;-117.188;2022-11-20T01:31:11;3.30;;;1.27;;
37847;SDS011;23688;33.130;-117.188;2022-11-20T01:33:45;5.85;;;1.35;;
37847;SDS011;23688;33.130;-117.188;2022-11-20T01:36:13;5.80;;;3.17;;
37847;SDS011;23688;33.130;-117.188;2022-11-20T01:38:40;10.15;;;2.95;;
37847;SDS011;23688;33.130;-117.188;2022-11-20T01:41:07;8.77;;;2.65;;
37847;SDS011;23688;33.130;-117.188;2022-11-20T01:43:34;3.85;;;1.88;;
37847;SDS011;23688;33.130;-117.188;2022-11-20T01:46:02;7.80;;;2.83;;
37847;SDS011;23688;33.130;-117.188;2022-11-20T01:48:39;5.82;;;2.03;;
37847;SDS011;23688;33.130;-117.188;2022-11-20T01:51:35;16.35;;;2.67;;
37847;SDS011;23688;33.130;-117.188;2022-11-20T01:54:08;8.57;;;2.80;;
37847;SDS011;23688;33.130;-117.188;2022-11-20T01:56:44;4.18;;;2.20;;
37847;SDS011;23688;33.130;-117.188;2022-11-20T01:59:14;4.13;;;1.80;;
37847;SDS011;23688;33.130;-117.188;2022-11-20T02:01:43;3.90;;;2.22;;
37847;SDS011;23688;33.130;-117.188;2022-11-20T02:04:09;11.88;;;2.22;;
37847;SDS011;23688;33.130;-117.188;2022-11-20T02:09:15;10.70;;;2.97;;
37847;SDS011;23688;33.130;-117.188;2022-11-20T02:11:41;9.60;;;3.80;;
37847;SDS011;23688;33.130;-117.188;2022-11-20T02:14:08;10.70;;;4.95;;
37847;SDS011;23688;33.130;-117.188;2022-11-20T02:16:39;8.05;;;4.70;;
37847;SDS011;23688;33.130;-117.188;2022-11-20T02:19:31;12.70;;;6.30;;
37847;SDS011;23688;33.130;-117.188;2022-11-20T02:24:34;7.75;;;3.70;;
37847;SDS011;23688;33.130;-117.188;2022-11-20T02:27:03;5.90;;;3.08;;
37847;SDS011;23688;33.130;-117.188;2022-11-20T02:32:06;3.88;;;2.05;;
37847;SDS011;23688;33.130;-117.188;2022-11-20T02:34:43;6.50;;;2.10;;
37847;SDS011;23688;33.130;-117.188;2022-11-20T02:37:10;5.53;;;1.80;;
37847;SDS011;23688;33.130;-117.188;2022-11-20T02:39:37;7.78;;;3.20;;
37847;SDS011;23688;33.130;-117.188;2022-11-20T02:42:03;10.40;;;3.15;;
37847;SDS011;23688;33.130;-117.188;2022-11-20T02:44:29;9.40;;;2.45;;
37847;SDS011;23688;33.130;-117.188;2022-11-20T02:46:59;14.48;;;6.55;;
37847;SDS011;23688;33.130;-117.188;2022-11-20T02:49:25;7.30;;;3.97;;
37847;SDS011;23688;33.130;-117.188;2022-11-20T02:51:51;12.27;;;4.43;;
37847;SDS011;23688;33.130;-117.188;2022-11-20T02:54:18;13.32;;;4.22;;
37847;SDS011;23688;33.130;-117.188;2022-11-20T02:56:44;12.00;;;3.75;;
37847;SDS011;23688;33.130;-117.188;2022-11-20T02:59:10;8.52;;;2.22;;
37847;SDS011;23688;33.130;-117.188;2022-11-20T03:01:36;4.75;;;2.30;;
37847;SDS011;23688;33.130;-117.188;2022-11-20T03:06:31;12.15;;;3.55;;
37847;SDS011;23688;33.130;-117.188;2022-11-20T03:08:58;10.32;;;3.33;;
37847;SDS011;23688;33.130;-117.188;2022-11-20T03:11:24;3.33;;;2.30;;
37847;SDS011;23688;33.130;-117.188;2022-11-20T03:13:51;6.38;;;2.25;;
37847;SDS011;23688;33.130;-117.188;2022-11-20T03:16:19;8.35;;;2.70;;
37847;SDS011;23688;33.130;-117.188;2022-11-20T03:18:47;5.45;;;2.17;;
37847;SDS011;23688;33.130;-117.188;2022-11-20T03:21:13;5.88;;;1.70;;
37847;SDS011;23688;33.130;-117.188;2022-11-20T03:23:40;11.25;;;5.43;;
37847;SDS011;23688;33.130;-117.188;2022-11-20T03:26:25;12.48;;;5.10;;
37847;SDS011;23688;33.130;-117.188;2022-11-20T03:28:53;14.95;;;5.53;;
37847;SDS011;23688;33.130;-117.188;2022-11-20T03:31:26;10.50;;;5.18;;
37847;SDS011;23688;33.130;-117.188;2022-11-20T03:33:58;10.02;;;4.60;;
37847;SDS011;23688;33.130;-117.188;2022-11-20T03:36:25;14.52;;;5.10;;
37847;SDS011;23688;33.130;-117.188;2022-11-20T03:38:55;14.90;;;5.20;;
37847;SDS011;23688;33.130;-117.188;2022-11-20T03:41:23;21.70;;;11.60;;
37847;SDS011;23688;33.130;-117.188;2022-11-20T03:43:54;38.33;;;19.27;;
37847;SDS011;23688;33.130;-117.188;2022-11-20T03:46:27;25.25;;;8.73;;
37847;SDS011;23688;33.130;-117.188;2022-11-20T03:48:54;13.85;;;5.70;;
37847;SDS011;23688;33.130;-117.188;2022-11-20T03:51:28;14.65;;;5.00;;
37847;SDS011;23688;33.130;-117.188;2022-11-20T03:54:00;11.07;;;5.82;;
37847;SDS011;23688;33.130;-117.188;2022-11-20T03:56:32;14.45;;;4.80;;
37847;SDS011;23688;33.130;-117.188;2022-11-20T03:59:00;12.50;;;5.65;;
37847;SDS011;23688;33.130;-117.188;2022-11-20T04:01:28;11.95;;;4.82;;
37847;SDS011;23688;33.130;-117.188;2022-11-20T04:03:57;7.95;;;4.53;;
37847;SDS011;23688;33.130;-117.188;2022-11-20T04:06:27;10.85;;;4.18;;
37847;SDS011;23688;33.130;-117.188;2022-11-20T04:09:02;12.43;;;4.78;;
37847;SDS011;23688;33.130;-117.188;2022-11-20T04:11:31;8.45;;;3.83;;
37847;SDS011;23688;33.130;-117.188;2022-11-20T04:13:59;10.90;;;3.35;;
37847;SDS011;23688;33.130;-117.188;2022-11-20T04:16:30;8.07;;;2.90;;
37847;SDS011;23688;33.130;-117.188;2022-11-20T04:18:59;6.30;;;2.40;;
37847;SDS011;23688;33.130;-117.188;2022-11-20T04:21:29;4.00;;;1.80;;
37847;SDS011;23688;33.130;-117.188;2022-11-20T04:23:56;3.80;;;1.92;;
37847;SDS011;23688;33.130;-117.188;2022-11-20T04:26:23;6.97;;;2.30;;
37847;SDS011;23688;33.130;-117.188;2022-11-20T04:28:51;13.02;;;4.00;;
37847;SDS011;23688;33.130;-117.188;2022-11-20T04:31:19;19.80;;;5.32;;
37847;SDS011;23688;33.130;-117.188;2022-11-20T04:33:47;15.38;;;4.45;;
37847;SDS011;23688;33.130;-117.188;2022-11-20T04:38:44;12.00;;;5.00;;
37847;SDS011;23688;33.130;-117.188;2022-11-20T04:41:20;7.65;;;4.07;;
37847;SDS011;23688;33.130;-117.188;2022-11-20T04:43:49;13.63;;;4.38;;
37847;SDS011;23688;33.130;-117.188;2022-11-20T04:46:17;11.30;;;3.70;;
37847;SDS011;23688;33.130;-117.188;2022-11-20T04:48:44;17.58;;;3.95;;
37847;SDS011;23688;33.130;-117.188;2022-11-20T04:51:11;15.57;;;5.10;;
37847;SDS011;23688;33.130;-117.188;2022-11-20T04:53:38;12.43;;;5.72;;
37847;SDS011;23688;33.130;-117.188;2022-11-20T04:56:07;11.23;;;5.43;;
37847;SDS011;23688;33.130;-117.188;2022-11-20T04:58:35;14.32;;;6.63;;
37847;SDS011;23688;33.130;-117.188;2022-11-20T05:01:05;13.13;;;6.40;;
37847;SDS011;23688;33.130;-117.188;2022-11-20T05:03:41;20.75;;;4.95;;
37847;SDS011;23688;33.130;-117.188;2022-11-20T05:06:09;10.40;;;3.95;;
37847;SDS011;23688;33.130;-117.188;2022-11-20T05:08:37;10.60;;;5.40;;
37847;SDS011;23688;33.130;-117.188;2022-11-20T05:11:04;7.57;;;4.13;;
37847;SDS011;23688;33.130;-117.188;2022-11-20T05:13:35;11.18;;;3.65;;
37847;SDS011;23688;33.130;-117.188;2022-11-20T05:16:08;9.40;;;3.53;;
37847;SDS011;23688;33.130;-117.188;2022-11-20T05:18:36;9.50;;;3.70;;
37847;SDS011;23688;33.130;-117.188;2022-11-20T05:21:03;14.65;;;4.43;;
37847;SDS011;23688;33.130;-117.188;2022-11-20T05:23:31;15.18;;;6.20;;
37847;SDS011;23688;33.130;-117.188;2022-11-20T05:25:58;9.57;;;3.60;;
37847;SDS011;23688;33.130;-117.188;2022-11-20T05:28:26;10.90;;;4.65;;
37847;SDS011;23688;33.130;-117.188;2022-11-20T05:30:53;16.10;;;5.22;;
37847;SDS011;23688;33.130;-117.188;2022-11-20T05:33:20;7.50;;;4.40;;
37847;SDS011;23688;33.130;-117.188;2022-11-20T05:35:47;8.45;;;4.38;;
37847;SDS011;23688;33.130;-117.188;2022-11-20T05:38:14;12.32;;;4.50;;
37847;SDS011;23688;33.130;-117.188;2022-11-20T05:40:40;9.00;;;3.95;;
37847;SDS011;23688;33.130;-117.188;2022-11-20T05:43:07;11.20;;;3.97;;
37847;SDS011;23688;33.130;-117.188;2022-11-20T05:45:33;7.43;;;4.53;;
37847;SDS011;23688;33.130;-117.188;2022-11-20T05:47:59;7.25;;;3.70;;
37847;SDS011;23688;33.130;-117.188;2022-11-20T05:50:27;12.43;;;4.72;;
37847;SDS011;23688;33.130;-117.188;2022-11-20T05:52:53;9.77;;;2.83;;
37847;SDS011;23688;33.130;-117.188;2022-11-20T05:55:20;13.45;;;5.22;;
37847;SDS011;23688;33.130;-117.188;2022-11-20T05:57:46;9.15;;;4.15;;
37847;SDS011;23688;33.130;-117.188;2022-11-20T06:00:13;9.57;;;3.90;;
37847;SDS011;23688;33.130;-117.188;2022-11-20T06:02:39;8.88;;;3.83;;
37847;SDS011;23688;33.130;-117.188;2022-11-20T06:05:06;9.73;;;4.65;;
37847;SDS011;23688;33.130;-117.188;2022-11-20T06:07:32;11.32;;;5.65;;
37847;SDS011;23688;33.130;-117.188;2022-11-20T06:09:58;13.02;;;6.03;;
37847;SDS011;23688;33.130;-117.188;2022-11-20T06:12:25;14.70;;;6.25;;
37847;SDS011;23688;33.130;-117.188;2022-11-20T06:14:51;10.13;;;5.88;;
37847;SDS011;23688;33.130;-117.188;2022-11-20T06:17:17;11.75;;;4.07;;
37847;SDS011;23688;33.130;-117.188;2022-11-20T06:19:44;8.32;;;4.38;;
37847;SDS011;23688;33.130;-117.188;2022-11-20T06:22:10;13.93;;;4.10;;
37847;SDS011;23688;33.130;-117.188;2022-11-20T06:24:36;9.43;;;3.67;;
37847;SDS011;23688;33.130;-117.188;2022-11-20T06:27:02;24.20;;;11.45;;
37847;SDS011;23688;33.130;-117.188;2022-11-20T06:29:29;7.68;;;4.88;;
37847;SDS011;23688;33.130;-117.188;2022-11-20T06:31:55;11.02;;;2.80;;
37847;SDS011;23688;33.130;-117.188;2022-11-20T06:34:21;2.42;;;1.77;;
37847;SDS011;23688;33.130;-117.188;2022-11-20T06:36:50;6.82;;;3.10;;
37847;SDS011;23688;33.130;-117.188;2022-11-20T06:39:16;7.97;;;2.90;;
37847;SDS011;23688;33.130;-117.188;2022-11-20T06:41:42;8.30;;;3.97;;
37847;SDS011;23688;33.130;-117.188;2022-11-20T06:44:08;12.18;;;4.35;;
37847;SDS011;23688;33.130;-117.188;2022-11-20T06:46:35;8.85;;;3.40;;
37847;SDS011;23688;33.130;-117.188;2022-11-20T06:49:01;8.63;;;4.80;;
37847;SDS011;23688;33.130;-117.188;2022-11-20T06:51:27;9.95;;;4.45;;
37847;SDS011;23688;33.130;-117.188;2022-11-20T06:53:54;8.13;;;3.40;;
37847;SDS011;23688;33.130;-117.188;2022-11-20T06:56:20;7.75;;;3.05;;
37847;SDS011;23688;33.130;-117.188;2022-11-20T06:58:46;5.53;;;2.95;;
37847;SDS011;23688;33.130;-117.188;2022-11-20T07:01:13;9.40;;;3.47;;
37847;SDS011;23688;33.130;-117.188;2022-11-20T07:03:40;9.50;;;2.88;;
37847;SDS011;23688;33.130;-117.188;2022-11-20T07:06:07;7.35;;;3.55;;
37847;SDS011;23688;33.130;-117.188;2022-11-20T07:08:34;12.77;;;3.70;;
37847;SDS011;23688;33.130;-117.188;2022-11-20T07:11:01;7.45;;;3.67;;
37847;SDS011;23688;33.130;-117.188;2022-11-20T07:13:30;17.90;;;9.48;;
37847;SDS011;23688;33.130;-117.188;2022-11-20T07:16:00;21.33;;;11.68;;
37847;SDS011;23688;33.130;-117.188;2022-11-20T07:18:32;14.25;;;6.70;;
37847;SDS011;23688;33.130;-117.188;2022-11-20T07:21:02;10.77;;;4.57;;
37847;SDS011;23688;33.130;-117.188;2022-11-20T07:23:30;7.75;;;4.63;;
37847;SDS011;23688;33.130;-117.188;2022-11-20T07:25:56;7.93;;;3.80;;
37847;SDS011;23688;33.130;-117.188;2022-11-20T07:28:22;12.63;;;5.50;;
37847;SDS011;23688;33.130;-117.188;2022-11-20T07:30:52;12.00;;;4.57;;
37847;SDS011;23688;33.130;-117.188;2022-11-20T07:33:19;10.13;;;5.97;;
37847;SDS011;23688;33.130;-117.188;2022-11-20T07:35:46;10.70;;;5.35;;
37847;SDS011;23688;33.130;-117.188;2022-11-20T07:38:12;7.43;;;3.65;;
37847;SDS011;23688;33.130;-117.188;2022-11-20T07:40:39;9.68;;;4.63;;
37847;SDS011;23688;33.130;-117.188;2022-11-20T07:43:05;15.43;;;7.07;;
37847;SDS011;23688;33.130;-117.188;2022-11-20T07:45:32;13.27;;;5.60;;
37847;SDS011;23688;33.130;-117.188;2022-11-20T07:47:58;11.02;;;3.97;;
37847;SDS011;23688;33.130;-117.188;2022-11-20T07:50:24;9.82;;;4.32;;
37847;SDS011;23688;33.130;-117.188;2022-11-20T07:52:50;9.90;;;3.33;;
37847;SDS011;23688;33.130;-117.188;2022-11-20T07:55:17;6.80;;;3.05;;
37847;SDS011;23688;33.130;-117.188;2022-11-20T07:57:44;9.55;;;3.45;;
37847;SDS011;23688;33.130;-117.188;2022-11-20T08:00:11;6.90;;;3.05;;
37847;SDS011;23688;33.130;-117.188;2022-11-20T08:02:38;5.82;;;2.90;;
37847;SDS011;23688;33.130;-117.188;2022-11-20T08:05:05;6.32;;;3.10;;
37847;SDS011;23688;33.130;-117.188;2022-11-20T08:07:39;7.68;;;3.00;;
37847;SDS011;23688;33.130;-117.188;2022-11-20T08:10:10;3.03;;;1.70;;
37847;SDS011;23688;33.130;-117.188;2022-11-20T08:12:45;6.90;;;1.85;;
37847;SDS011;23688;33.130;-117.188;2022-11-20T08:15:34;4.20;;;1.80;;
37847;SDS011;23688;33.130;-117.188;2022-11-20T08:18:02;3.25;;;1.70;;
37847;SDS011;23688;33.130;-117.188;2022-11-20T08:20:32;5.00;;;1.65;;
37847;SDS011;23688;33.130;-117.188;2022-11-20T08:23:06;4.70;;;1.73;;
37847;SDS011;23688;33.130;-117.188;2022-11-20T08:25:33;4.53;;;2.17;;
37847;SDS011;23688;33.130;-117.188;2022-11-20T08:28:02;7.20;;;1.92;;
37847;SDS011;23688;33.130;-117.188;2022-11-20T08:30:30;2.83;;;1.55;;
37847;SDS011;23688;33.130;-117.188;2022-11-20T08:33:00;3.70;;;1.60;;
37847;SDS011;23688;33.130;-117.188;2022-11-20T08:35:36;4.93;;;1.67;;
37847;SDS011;23688;33.130;-117.188;2022-11-20T08:38:06;3.60;;;1.92;;
37847;SDS011;23688;33.130;-117.188;2022-11-20T08:40:34;2.42;;;1.30;;
37847;SDS011;23688;33.130;-117.188;2022-11-20T08:43:00;2.60;;;1.60;;
37847;SDS011;23688;33.130;-117.188;2022-11-20T08:45:26;7.88;;;1.52;;
37847;SDS011;23688;33.130;-117.188;2022-11-20T08:47:53;4.88;;;1.48;;
37847;SDS011;23688;33.130;-117.188;2022-11-20T08:50:19;6.18;;;2.17;;
37847;SDS011;23688;33.130;-117.188;2022-11-20T08:52:45;2.67;;;1.52;;
37847;SDS011;23688;33.130;-117.188;2022-11-20T08:55:12;3.15;;;1.98;;
37847;SDS011;23688;33.130;-117.188;2022-11-20T08:57:38;5.38;;;1.90;;
37847;SDS011;23688;33.130;-117.188;2022-11-20T09:00:05;4.82;;;1.67;;
37847;SDS011;23688;33.130;-117.188;2022-11-20T09:02:32;4.32;;;1.98;;
37847;SDS011;23688;33.130;-117.188;2022-11-20T09:04:59;7.70;;;2.00;;
37847;SDS011;23688;33.130;-117.188;2022-11-20T09:07:27;4.30;;;2.28;;
37847;SDS011;23688;33.130;-117.188;2022-11-20T09:09:54;7.15;;;2.70;;
37847;SDS011;23688;33.130;-117.188;2022-11-20T09:12:20;5.28;;;2.45;;
37847;SDS011;23688;33.130;-117.188;2022-11-20T09:14:47;3.00;;;1.77;;
37847;SDS011;23688;33.130;-117.188;2022-11-20T09:17:13;2.53;;;1.75;;
37847;SDS011;23688;33.130;-117.188;2022-11-20T09:19:40;8.30;;;2.22;;
37847;SDS011;23688;33.130;-117.188;2022-11-20T09:22:06;3.28;;;1.98;;
37847;SDS011;23688;33.130;-117.188;2022-11-20T09:24:33;13.32;;;2.70;;
37847;SDS011;23688;33.130;-117.188;2022-11-20T09:27:01;6.00;;;2.00;;
37847;SDS011;23688;33.130;-117.188;2022-11-20T09:29:28;4.53;;;1.88;;
37847;SDS011;23688;33.130;-117.188;2022-11-20T09:31:54;12.85;;;2.03;;
37847;SDS011;23688;33.130;-117.188;2022-11-20T09:34:20;7.97;;;2.10;;
37847;SDS011;23688;33.130;-117.188;2022-11-20T09:36:47;7.43;;;2.78;;
37847;SDS011;23688;33.130;-117.188;2022-11-20T09:39:13;6.65;;;2.65;;
37847;SDS011;23688;33.130;-117.188;2022-11-20T09:41:43;7.32;;;2.72;;
37847;SDS011;23688;33.130;-117.188;2022-11-20T09:52:58;5.70;;;2.50;;
37847;SDS011;23688;33.130;-117.188;2022-11-20T09:55:30;6.32;;;2.58;;
37847;SDS011;23688;33.130;-117.188;2022-11-20T09:57:57;5.85;;;1.88;;
37847;SDS011;23688;33.130;-117.188;2022-11-20T10:00:24;3.85;;;2.17;;
37847;SDS011;23688;33.130;-117.188;2022-11-20T10:03:16;3.42;;;2.40;;
37847;SDS011;23688;33.130;-117.188;2022-11-20T10:05:49;7.68;;;1.45;;
37847;SDS011;23688;33.130;-117.188;2022-11-20T10:08:21;7.22;;;1.67;;
37847;SDS011;23688;33.130;-117.188;2022-11-20T10:13:39;7.10;;;1.73;;
37847;SDS011;23688;33.130;-117.188;2022-11-20T10:16:36;5.50;;;1.85;;
37847;SDS011;23688;33.130;-117.188;2022-11-20T10:30:12;4.10;;;1.60;;
37847;SDS011;23688;33.130;-117.188;2022-11-20T10:32:40;7.13;;;2.35;;
37847;SDS011;23688;33.130;-117.188;2022-11-20T10:38:00;3.30;;;1.58;;
37847;SDS011;23688;33.130;-117.188;2022-11-20T10:40:41;2.75;;;2.03;;
37847;SDS011;23688;33.130;-117.188;2022-11-20T10:45:52;3.33;;;1.40;;
37847;SDS011;23688;33.130;-117.188;2022-11-20T10:48:25;3.28;;;1.50;;
37847;SDS011;23688;33.130;-117.188;2022-11-20T10:50:55;3.55;;;1.45;;
37847;SDS011;23688;33.130;-117.188;2022-11-20T11:01:39;4.75;;;1.50;;
37847;SDS011;23688;33.130;-117.188;2022-11-20T11:04:14;3.88;;;1.00;;
37847;SDS011;23688;33.130;-117.188;2022-11-20T11:07:15;2.67;;;1.15;;
37847;SDS011;23688;33.130;-117.188;2022-11-20T11:09:55;3.72;;;2.60;;
37847;SDS011;23688;33.130;-117.188;2022-11-20T11:12:24;3.85;;;2.92;;
37847;SDS011;23688;33.130;-117.188;2022-11-20T11:14:52;7.72;;;3.45;;
37847;SDS011;23688;33.130;-117.188;2022-11-20T11:17:21;7.53;;;3.33;;
37847;SDS011;23688;33.130;-117.188;2022-11-20T11:19:58;6.93;;;3.83;;
37847;SDS011;23688;33.130;-117.188;2022-11-20T11:22:29;5.47;;;3.15;;
37847;SDS011;23688;33.130;-117.188;2022-11-20T11:24:58;5.07;;;3.20;;
37847;SDS011;23688;33.130;-117.188;2022-11-20T11:27:25;4.82;;;2.88;;
37847;SDS011;23688;33.130;-117.188;2022-11-20T11:30:00;6.95;;;3.05;;
37847;SDS011;23688;33.130;-117.188;2022-11-20T11:32:39;11.17;;;2.83;;
37847;SDS011;23688;33.130;-117.188;2022-11-20T11:35:06;3.85;;;2.20;;
37847;SDS011;23688;33.130;-117.188;2022-11-20T11:37:45;8.05;;;2.60;;
37847;SDS011;23688;33.130;-117.188;2022-11-20T11:40:13;6.35;;;2.67;;
37847;SDS011;23688;33.130;-117.188;2022-11-20T11:42:44;5.13;;;2.38;;
37847;SDS011;23688;33.130;-117.188;2022-11-20T11:45:16;7.55;;;2.65;;
37847;SDS011;23688;33.130;-117.188;2022-11-20T11:52:43;5.95;;;2.25;;
37847;SDS011;23688;33.130;-117.188;2022-11-20T11:55:15;3.22;;;1.40;;
37847;SDS011;23688;33.130;-117.188;2022-11-20T12:00:36;5.23;;;1.50;;
37847;SDS011;23688;33.130;-117.188;2022-11-20T12:03:15;2.63;;;1.20;;
37847;SDS011;23688;33.130;-117.188;2022-11-20T12:05:59;1.43;;;1.10;;
37847;SDS011;23688;33.130;-117.188;2022-11-20T12:11:24;1.30;;;1.20;;
37847;SDS011;23688;33.130;-117.188;2022-11-20T12:14:15;1.33;;;1.23;;
37847;SDS011;23688;33.130;-117.188;2022-11-20T12:16:44;5.55;;;2.58;;
37847;SDS011;23688;33.130;-117.188;2022-11-20T12:19:12;3.60;;;1.20;;
37847;SDS011;23688;33.130;-117.188;2022-11-20T12:24:39;3.92;;;1.20;;
37847;SDS011;23688;33.130;-117.188;2022-11-20T12:27:35;2.55;;;1.40;;
37847;SDS011;23688;33.130;-117.188;2022-11-20T12:30:12;4.30;;;1.63;;
37847;SDS011;23688;33.130;-117.188;2022-11-20T12:43:16;1.83;;;1.00;;
37847;SDS011;23688;33.130;-117.188;2022-11-20T12:54:16;3.65;;;1.40;;
37847;SDS011;23688;33.130;-117.188;2022-11-20T12:57:08;2.53;;;1.42;;
37847;SDS011;23688;33.130;-117.188;2022-11-20T13:05:37;3.42;;;0.98;;
37847;SDS011;23688;33.130;-117.188;2022-11-20T13:08:23;2.83;;;1.10;;
37847;SDS011;23688;33.130;-117.188;2022-11-20T13:19:51;2.28;;;1.13;;
37847;SDS011;23688;33.130;-117.188;2022-11-20T13:22:31;6.10;;;1.15;;
37847;SDS011;23688;33.130;-117.188;2022-11-20T13:25:21;7.60;;;1.98;;
37847;SDS011;23688;33.130;-117.188;2022-11-20T13:30:34;3.75;;;0.90;;
37847;SDS011;23688;33.130;-117.188;2022-11-20T13:35:35;4.20;;;1.38;;
37847;SDS011;23688;33.130;-117.188;2022-11-20T13:38:10;1.75;;;1.20;;
37847;SDS011;23688;33.130;-117.188;2022-11-20T13:40:51;1.95;;;1.13;;
37847;SDS011;23688;33.130;-117.188;2022-11-20T13:45:59;7.20;;;1.40;;
37847;SDS011;23688;33.130;-117.188;2022-11-20T13:48:40;5.20;;;1.40;;
37847;SDS011;23688;33.130;-117.188;2022-11-20T13:51:26;1.30;;;1.17;;
37847;SDS011;23688;33.130;-117.188;2022-11-20T14:02:18;9.55;;;1.55;;
37847;SDS011;23688;33.130;-117.188;2022-11-20T14:04:48;2.05;;;1.20;;
37847;SDS011;23688;33.130;-117.188;2022-11-20T14:07:17;1.63;;;1.52;;
37847;SDS011;23688;33.130;-117.188;2022-11-20T14:09:52;3.42;;;1.40;;
37847;SDS011;23688;33.130;-117.188;2022-11-20T14:12:22;3.65;;;1.35;;
37847;SDS011;23688;33.130;-117.188;2022-11-20T14:14:56;3.13;;;1.38;;
37847;SDS011;23688;33.130;-117.188;2022-11-20T14:17:23;1.90;;;1.25;;
37847;SDS011;23688;33.130;-117.188;2022-11-20T14:20:03;5.80;;;1.80;;
37847;SDS011;23688;33.130;-117.188;2022-11-20T14:22:31;5.28;;;2.00;;
37847;SDS011;23688;33.130;-117.188;2022-11-20T14:27:43;3.65;;;1.60;;
37847;SDS011;23688;33.130;-117.188;2022-11-20T14:30:17;6.85;;;1.20;;
37847;SDS011;23688;33.130;-117.188;2022-11-20T14:32:46;3.70;;;1.50;;
37847;SDS011;23688;33.130;-117.188;2022-11-20T14:35:15;1.98;;;1.15;;
37847;SDS011;23688;33.130;-117.188;2022-11-20T14:37:47;3.30;;;1.30;;
37847;SDS011;23688;33.130;-117.188;2022-11-20T14:40:24;2.20;;;1.17;;
37847;SDS011;23688;33.130;-117.188;2022-11-20T14:42:53;3.60;;;1.10;;
37847;SDS011;23688;33.130;-117.188;2022-11-20T14:45:20;2.30;;;1.60;;
37847;SDS011;23688;33.130;-117.188;2022-11-20T14:47:47;4.80;;;2.00;;
37847;SDS011;23688;33.130;-117.188;2022-11-20T14:50:28;10.20;;;2.38;;
37847;SDS011;23688;33.130;-117.188;2022-11-20T14:52:56;5.95;;;1.42;;
37847;SDS011;23688;33.130;-117.188;2022-11-20T14:57:56;2.75;;;1.30;;
37847;SDS011;23688;33.130;-117.188;2022-11-20T15:00:24;2.50;;;1.30;;
37847;SDS011;23688;33.130;-117.188;2022-11-20T15:02:51;4.18;;;1.73;;
37847;SDS011;23688;33.130;-117.188;2022-11-20T15:05:19;8.35;;;2.58;;
37847;SDS011;23688;33.130;-117.188;2022-11-20T15:07:48;3.28;;;1.77;;
37847;SDS011;23688;33.130;-117.188;2022-11-20T15:10:24;4.20;;;1.80;;
37847;SDS011;23688;33.130;-117.188;2022-11-20T15:12:55;3.35;;;1.20;;
37847;SDS011;23688;33.130;-117.188;2022-11-20T15:17:58;4.55;;;1.30;;
37847;SDS011;23688;33.130;-117.188;2022-11-20T15:20:26;4.53;;;1.23;;
37847;SDS011;23688;33.130;-117.188;2022-11-20T15:22:56;5.20;;;1.73;;
37847;SDS011;23688;33.130;-117.188;2022-11-20T15:25:22;3.17;;;1.88;;
37847;SDS011;23688;33.130;-117.188;2022-11-20T15:27:52;4.53;;;1.73;;
37847;SDS011;23688;33.130;-117.188;2022-11-20T15:30:22;2.00;;;1.25;;
37847;SDS011;23688;33.130;-117.188;2022-11-20T15:32:49;1.52;;;1.35;;
37847;SDS011;23688;33.130;-117.188;2022-11-20T15:35:15;3.30;;;1.20;;
37847;SDS011;23688;33.130;-117.188;2022-11-20T15:37:42;7.15;;;1.17;;
37847;SDS011;23688;33.130;-117.188;2022-11-20T15:40:08;5.25;;;1.30;;
37847;SDS011;23688;33.130;-117.188;2022-11-20T15:42:35;5.13;;;1.30;;
37847;SDS011;23688;33.130;-117.188;2022-11-20T15:45:02;2.08;;;1.00;;
37847;SDS011;23688;33.130;-117.188;2022-11-20T15:47:29;8.50;;;1.63;;
37847;SDS011;23688;33.130;-117.188;2022-11-20T15:49:59;7.53;;;1.73;;
37847;SDS011;23688;33.130;-117.188;2022-11-20T15:52:25;5.38;;;1.55;;
37847;SDS011;23688;33.130;-117.188;2022-11-20T15:54:52;8.90;;;2.05;;
37847;SDS011;23688;33.130;-117.188;2022-11-20T15:57:18;4.80;;;1.90;;
37847;SDS011;23688;33.130;-117.188;2022-11-20T15:59:44;1.90;;;1.40;;
37847;SDS011;23688;33.130;-117.188;2022-11-20T16:02:11;5.78;;;1.90;;
37847;SDS011;23688;33.130;-117.188;2022-11-20T16:04:37;5.25;;;1.85;;
37847;SDS011;23688;33.130;-117.188;2022-11-20T16:07:04;3.05;;;1.40;;
37847;SDS011;23688;33.130;-117.188;2022-11-20T16:09:30;4.03;;;1.55;;
37847;SDS011;23688;33.130;-117.188;2022-11-20T16:11:57;4.68;;;1.63;;
37847;SDS011;23688;33.130;-117.188;2022-11-20T16:14:25;3.78;;;1.70;;
37847;SDS011;23688;33.130;-117.188;2022-11-20T16:17:09;1.92;;;1.48;;
37847;SDS011;23688;33.130;-117.188;2022-11-20T16:19:36;6.57;;;2.10;;
37847;SDS011;23688;33.130;-117.188;2022-11-20T16:22:03;4.25;;;1.70;;
37847;SDS011;23688;33.130;-117.188;2022-11-20T16:24:29;2.97;;;1.35;;